sensor_id;sensor_type;location;lat;lon;timestamp;P1;durP1;ratioP1;P2;durP2;ratioP2
27670;SDS011;15077;49.704;9.908;2023-05-10T00:00:15;1.60;;;1.20;;
27670;SDS011;15077;49.704;9.908;2023-05-10T00:02:42;1.98;;;0.90;;
27670;SDS011;15077;49.704;9.908;2023-05-10T00:05:07;1.48;;;1.00;;
27670;SDS011;15077;49.704;9.908;2023-05-10T00:07:34;2.40;;;1.38;;
27670;SDS011;15077;49.704;9.908;2023-05-10T00:10:00;2.42;;;1.35;;
27670;SDS011;15077;49.704;9.908;2023-05-10T00:12:27;2.55;;;1.67;;
27670;SDS011;15077;49.704;9.908;2023-05-10T00:14:54;3.65;;;1.52;;
27670;SDS011;15077;49.704;9.908;2023-05-10T00:17:21;1.63;;;0.98;;
27670;SDS011;15077;49.704;9.908;2023-05-10T00:19:47;1.35;;;1.00;;
27670;SDS011;15077;49.704;9.908;2023-05-10T00:22:13;1.33;;;0.70;;
27670;SDS011;15077;49.704;9.908;2023-05-10T00:24:39;1.80;;;1.10;;
27670;SDS011;15077;49.704;9.908;2023-05-10T00:27:05;1.45;;;1.00;;
27670;SDS011;15077;49.704;9.908;2023-05-10T00:29:31;1.67;;;0.95;;
27670;SDS011;15077;49.704;9.908;2023-05-10T00:31:58;2.05;;;1.17;;
27670;SDS011;15077;49.704;9.908;2023-05-10T00:34:26;1.48;;;0.80;;
27670;SDS011;15077;49.704;9.908;2023-05-10T00:36:53;1.15;;;0.93;;
27670;SDS011;15077;49.704;9.908;2023-05-10T00:39:19;1.50;;;0.82;;
27670;SDS011;15077;49.704;9.908;2023-05-10T00:41:45;1.05;;;0.65;;
27670;SDS011;15077;49.704;9.908;2023-05-10T00:44:11;1.25;;;0.68;;
27670;SDS011;15077;49.704;9.908;2023-05-10T00:46:37;0.98;;;0.60;;
27670;SDS011;15077;49.704;9.908;2023-05-10T00:49:03;1.05;;;0.60;;
27670;SDS011;15077;49.704;9.908;2023-05-10T00:51:32;1.15;;;0.80;;
27670;SDS011;15077;49.704;9.908;2023-05-10T00:53:58;1.42;;;0.82;;
27670;SDS011;15077;49.704;9.908;2023-05-10T00:56:25;0.80;;;0.50;;
27670;SDS011;15077;49.704;9.908;2023-05-10T00:58:51;0.93;;;0.70;;
27670;SDS011;15077;49.704;9.908;2023-05-10T01:01:18;0.85;;;0.70;;
27670;SDS011;15077;49.704;9.908;2023-05-10T01:03:50;0.95;;;0.63;;
27670;SDS011;15077;49.704;9.908;2023-05-10T01:06:16;1.20;;;0.73;;
27670;SDS011;15077;49.704;9.908;2023-05-10T01:08:41;1.27;;;0.70;;
27670;SDS011;15077;49.704;9.908;2023-05-10T01:11:07;1.45;;;0.90;;
27670;SDS011;15077;49.704;9.908;2023-05-10T01:13:35;0.80;;;0.60;;
27670;SDS011;15077;49.704;9.908;2023-05-10T01:16:07;1.90;;;0.95;;
27670;SDS011;15077;49.704;9.908;2023-05-10T01:18:39;1.20;;;0.73;;
27670;SDS011;15077;49.704;9.908;2023-05-10T01:24:31;0.90;;;0.60;;
27670;SDS011;15077;49.704;9.908;2023-05-10T01:27:47;0.60;;;0.60;;
27670;SDS011;15077;49.704;9.908;2023-05-10T01:33:54;1.05;;;0.60;;
27670;SDS011;15077;49.704;9.908;2023-05-10T01:36:30;0.50;;;0.40;;
27670;SDS011;15077;49.704;9.908;2023-05-10T01:39:24;0.73;;;0.40;;
27670;SDS011;15077;49.704;9.908;2023-05-10T01:42:25;0.55;;;0.32;;
27670;SDS011;15077;49.704;9.908;2023-05-10T01:45:14;0.63;;;0.50;;
27670;SDS011;15077;49.704;9.908;2023-05-10T01:48:17;0.60;;;0.40;;
27670;SDS011;15077;49.704;9.908;2023-05-10T01:50:47;0.98;;;0.40;;
27670;SDS011;15077;49.704;9.908;2023-05-10T01:53:18;0.30;;;0.30;;
27670;SDS011;15077;49.704;9.908;2023-05-10T01:55:49;0.30;;;0.25;;
27670;SDS011;15077;49.704;9.908;2023-05-10T01:58:22;0.60;;;0.22;;
27670;SDS011;15077;49.704;9.908;2023-05-10T02:00:58;0.38;;;0.30;;
27670;SDS011;15077;49.704;9.908;2023-05-10T02:03:29;0.25;;;0.25;;
27670;SDS011;15077;49.704;9.908;2023-05-10T02:06:00;0.50;;;0.28;;
27670;SDS011;15077;49.704;9.908;2023-05-10T02:08:28;0.20;;;0.20;;
27670;SDS011;15077;49.704;9.908;2023-05-10T02:11:04;0.60;;;0.40;;
27670;SDS011;15077;49.704;9.908;2023-05-10T02:13:32;0.50;;;0.20;;
27670;SDS011;15077;49.704;9.908;2023-05-10T02:16:01;1.40;;;0.30;;
27670;SDS011;15077;49.704;9.908;2023-05-10T02:18:32;0.30;;;0.20;;
27670;SDS011;15077;49.704;9.908;2023-05-10T02:21:01;0.30;;;0.30;;
27670;SDS011;15077;49.704;9.908;2023-05-10T02:23:28;0.30;;;0.30;;
27670;SDS011;15077;49.704;9.908;2023-05-10T02:25:57;1.20;;;0.40;;
27670;SDS011;15077;49.704;9.908;2023-05-10T02:28:27;0.70;;;0.20;;
27670;SDS011;15077;49.704;9.908;2023-05-10T02:30:57;0.40;;;0.30;;
27670;SDS011;15077;49.704;9.908;2023-05-10T02:33:25;0.50;;;0.40;;
27670;SDS011;15077;49.704;9.908;2023-05-10T02:35:55;2.30;;;0.85;;
27670;SDS011;15077;49.704;9.908;2023-05-10T02:38:22;1.08;;;0.43;;
27670;SDS011;15077;49.704;9.908;2023-05-10T02:40:52;0.40;;;0.30;;
27670;SDS011;15077;49.704;9.908;2023-05-10T02:43:22;0.30;;;0.30;;
27670;SDS011;15077;49.704;9.908;2023-05-10T02:45:51;1.10;;;0.40;;
27670;SDS011;15077;49.704;9.908;2023-05-10T02:48:19;0.95;;;0.30;;
27670;SDS011;15077;49.704;9.908;2023-05-10T02:50:45;0.57;;;0.30;;
27670;SDS011;15077;49.704;9.908;2023-05-10T02:53:18;0.90;;;0.20;;
27670;SDS011;15077;49.704;9.908;2023-05-10T02:55:58;0.55;;;0.20;;
27670;SDS011;15077;49.704;9.908;2023-05-10T02:58:32;0.20;;;0.20;;
27670;SDS011;15077;49.704;9.908;2023-05-10T03:00:59;1.42;;;0.30;;
27670;SDS011;15077;49.704;9.908;2023-05-10T03:03:27;0.30;;;0.30;;
27670;SDS011;15077;49.704;9.908;2023-05-10T03:05:53;0.77;;;0.30;;
27670;SDS011;15077;49.704;9.908;2023-05-10T03:08:22;0.40;;;0.30;;
27670;SDS011;15077;49.704;9.908;2023-05-10T03:10:54;0.68;;;0.30;;
27670;SDS011;15077;49.704;9.908;2023-05-10T03:13:52;0.30;;;0.30;;
27670;SDS011;15077;49.704;9.908;2023-05-10T03:16:53;1.38;;;0.20;;
27670;SDS011;15077;49.704;9.908;2023-05-10T03:22:34;0.63;;;0.55;;
27670;SDS011;15077;49.704;9.908;2023-05-10T03:25:10;0.20;;;0.20;;
27670;SDS011;15077;49.704;9.908;2023-05-10T03:27:41;0.40;;;0.30;;
27670;SDS011;15077;49.704;9.908;2023-05-10T03:30:09;2.53;;;0.65;;
27670;SDS011;15077;49.704;9.908;2023-05-10T03:32:37;0.45;;;0.40;;
27670;SDS011;15077;49.704;9.908;2023-05-10T03:35:07;0.52;;;0.20;;
27670;SDS011;15077;49.704;9.908;2023-05-10T03:37:35;0.40;;;0.40;;
27670;SDS011;15077;49.704;9.908;2023-05-10T03:40:03;0.50;;;0.30;;
27670;SDS011;15077;49.704;9.908;2023-05-10T03:42:30;2.45;;;0.30;;
27670;SDS011;15077;49.704;9.908;2023-05-10T03:44:56;0.38;;;0.30;;
27670;SDS011;15077;49.704;9.908;2023-05-10T03:47:24;0.50;;;0.30;;
27670;SDS011;15077;49.704;9.908;2023-05-10T03:49:50;0.73;;;0.30;;
27670;SDS011;15077;49.704;9.908;2023-05-10T03:52:18;0.25;;;0.20;;
27670;SDS011;15077;49.704;9.908;2023-05-10T03:54:44;0.20;;;0.20;;
27670;SDS011;15077;49.704;9.908;2023-05-10T03:57:10;0.38;;;0.30;;
27670;SDS011;15077;49.704;9.908;2023-05-10T03:59:36;0.73;;;0.30;;
27670;SDS011;15077;49.704;9.908;2023-05-10T04:02:02;0.45;;;0.40;;
27670;SDS011;15077;49.704;9.908;2023-05-10T04:04:28;0.40;;;0.25;;
27670;SDS011;15077;49.704;9.908;2023-05-10T04:06:53;0.50;;;0.40;;
27670;SDS011;15077;49.704;9.908;2023-05-10T04:09:19;0.40;;;0.30;;
27670;SDS011;15077;49.704;9.908;2023-05-10T04:11:45;0.30;;;0.30;;
27670;SDS011;15077;49.704;9.908;2023-05-10T04:14:11;0.30;;;0.30;;
27670;SDS011;15077;49.704;9.908;2023-05-10T04:16:37;0.20;;;0.20;;
27670;SDS011;15077;49.704;9.908;2023-05-10T04:19:02;0.30;;;0.30;;
27670;SDS011;15077;49.704;9.908;2023-05-10T04:21:29;0.50;;;0.40;;
27670;SDS011;15077;49.704;9.908;2023-05-10T04:23:55;0.65;;;0.50;;
27670;SDS011;15077;49.704;9.908;2023-05-10T04:26:21;0.60;;;0.40;;
27670;SDS011;15077;49.704;9.908;2023-05-10T04:28:47;0.30;;;0.30;;
27670;SDS011;15077;49.704;9.908;2023-05-10T04:31:12;4.50;;;0.85;;
27670;SDS011;15077;49.704;9.908;2023-05-10T04:33:38;0.40;;;0.40;;
27670;SDS011;15077;49.704;9.908;2023-05-10T04:36:04;0.50;;;0.40;;
27670;SDS011;15077;49.704;9.908;2023-05-10T04:38:30;1.98;;;0.40;;
27670;SDS011;15077;49.704;9.908;2023-05-10T04:41:09;1.33;;;0.60;;
27670;SDS011;15077;49.704;9.908;2023-05-10T04:43:36;0.68;;;0.40;;
27670;SDS011;15077;49.704;9.908;2023-05-10T04:46:03;0.30;;;0.30;;
27670;SDS011;15077;49.704;9.908;2023-05-10T04:48:30;0.40;;;0.40;;
27670;SDS011;15077;49.704;9.908;2023-05-10T04:50:55;1.05;;;0.50;;
27670;SDS011;15077;49.704;9.908;2023-05-10T04:53:21;1.20;;;0.40;;
27670;SDS011;15077;49.704;9.908;2023-05-10T04:55:47;0.80;;;0.60;;
27670;SDS011;15077;49.704;9.908;2023-05-10T04:58:13;0.63;;;0.43;;
27670;SDS011;15077;49.704;9.908;2023-05-10T05:00:39;0.90;;;0.40;;
27670;SDS011;15077;49.704;9.908;2023-05-10T05:03:05;0.95;;;0.55;;
27670;SDS011;15077;49.704;9.908;2023-05-10T05:05:31;2.03;;;1.10;;
27670;SDS011;15077;49.704;9.908;2023-05-10T05:07:57;0.98;;;0.60;;
27670;SDS011;15077;49.704;9.908;2023-05-10T05:10:22;1.55;;;0.45;;
27670;SDS011;15077;49.704;9.908;2023-05-10T05:12:48;0.40;;;0.40;;
27670;SDS011;15077;49.704;9.908;2023-05-10T05:15:14;0.75;;;0.52;;
27670;SDS011;15077;49.704;9.908;2023-05-10T05:17:41;1.17;;;0.85;;
27670;SDS011;15077;49.704;9.908;2023-05-10T05:20:08;0.75;;;0.60;;
27670;SDS011;15077;49.704;9.908;2023-05-10T05:22:38;0.70;;;0.50;;
27670;SDS011;15077;49.704;9.908;2023-05-10T05:25:04;1.23;;;0.60;;
27670;SDS011;15077;49.704;9.908;2023-05-10T05:27:31;0.70;;;0.60;;
27670;SDS011;15077;49.704;9.908;2023-05-10T05:29:57;0.60;;;0.60;;
27670;SDS011;15077;49.704;9.908;2023-05-10T05:32:23;0.52;;;0.43;;
27670;SDS011;15077;49.704;9.908;2023-05-10T05:34:50;1.73;;;0.50;;
27670;SDS011;15077;49.704;9.908;2023-05-10T05:37:17;0.70;;;0.50;;
27670;SDS011;15077;49.704;9.908;2023-05-10T05:39:44;0.93;;;0.40;;
27670;SDS011;15077;49.704;9.908;2023-05-10T05:42:11;1.75;;;0.50;;
27670;SDS011;15077;49.704;9.908;2023-05-10T05:44:38;0.60;;;0.40;;
27670;SDS011;15077;49.704;9.908;2023-05-10T05:47:04;1.45;;;0.50;;
27670;SDS011;15077;49.704;9.908;2023-05-10T05:49:31;1.63;;;0.60;;
27670;SDS011;15077;49.704;9.908;2023-05-10T05:52:03;1.00;;;0.70;;
27670;SDS011;15077;49.704;9.908;2023-05-10T05:54:29;0.80;;;0.80;;
27670;SDS011;15077;49.704;9.908;2023-05-10T05:56:57;0.70;;;0.50;;
27670;SDS011;15077;49.704;9.908;2023-05-10T05:59:24;1.30;;;0.70;;
27670;SDS011;15077;49.704;9.908;2023-05-10T06:01:49;0.70;;;0.60;;
27670;SDS011;15077;49.704;9.908;2023-05-10T06:04:16;0.73;;;0.55;;
27670;SDS011;15077;49.704;9.908;2023-05-10T06:06:42;1.25;;;0.70;;
27670;SDS011;15077;49.704;9.908;2023-05-10T06:09:08;1.40;;;0.63;;
27670;SDS011;15077;49.704;9.908;2023-05-10T06:11:34;4.07;;;1.10;;
27670;SDS011;15077;49.704;9.908;2023-05-10T06:14:00;0.68;;;0.50;;
27670;SDS011;15077;49.704;9.908;2023-05-10T06:16:28;0.95;;;0.50;;
27670;SDS011;15077;49.704;9.908;2023-05-10T06:18:54;2.15;;;0.73;;
27670;SDS011;15077;49.704;9.908;2023-05-10T06:21:20;0.80;;;0.55;;
27670;SDS011;15077;49.704;9.908;2023-05-10T06:23:46;0.90;;;0.50;;
27670;SDS011;15077;49.704;9.908;2023-05-10T06:26:11;2.13;;;0.75;;
27670;SDS011;15077;49.704;9.908;2023-05-10T06:28:38;0.85;;;0.60;;
27670;SDS011;15077;49.704;9.908;2023-05-10T06:31:05;1.15;;;0.80;;
27670;SDS011;15077;49.704;9.908;2023-05-10T06:33:31;1.08;;;0.70;;
27670;SDS011;15077;49.704;9.908;2023-05-10T06:35:58;0.93;;;0.68;;
27670;SDS011;15077;49.704;9.908;2023-05-10T06:38:23;1.00;;;0.90;;
27670;SDS011;15077;49.704;9.908;2023-05-10T06:40:49;1.15;;;0.90;;
27670;SDS011;15077;49.704;9.908;2023-05-10T06:43:15;3.00;;;1.30;;
27670;SDS011;15077;49.704;9.908;2023-05-10T06:45:41;1.77;;;0.90;;
27670;SDS011;15077;49.704;9.908;2023-05-10T06:48:07;2.55;;;0.90;;
27670;SDS011;15077;49.704;9.908;2023-05-10T06:50:33;2.50;;;0.90;;
27670;SDS011;15077;49.704;9.908;2023-05-10T06:52:59;1.20;;;1.10;;
27670;SDS011;15077;49.704;9.908;2023-05-10T06:55:26;2.08;;;1.00;;
27670;SDS011;15077;49.704;9.908;2023-05-10T06:57:53;1.20;;;1.10;;
27670;SDS011;15077;49.704;9.908;2023-05-10T07:00:19;1.50;;;1.02;;
27670;SDS011;15077;49.704;9.908;2023-05-10T07:02:45;1.88;;;0.90;;
27670;SDS011;15077;49.704;9.908;2023-05-10T07:05:11;1.13;;;0.95;;
27670;SDS011;15077;49.704;9.908;2023-05-10T07:07:38;2.70;;;1.25;;
27670;SDS011;15077;49.704;9.908;2023-05-10T07:10:04;1.67;;;1.23;;
27670;SDS011;15077;49.704;9.908;2023-05-10T07:12:32;1.70;;;0.90;;
27670;SDS011;15077;49.704;9.908;2023-05-10T07:14:57;1.50;;;1.00;;
27670;SDS011;15077;49.704;9.908;2023-05-10T07:17:24;2.70;;;1.95;;
27670;SDS011;15077;49.704;9.908;2023-05-10T07:19:49;1.77;;;1.20;;
27670;SDS011;15077;49.704;9.908;2023-05-10T07:22:15;1.30;;;0.90;;
27670;SDS011;15077;49.704;9.908;2023-05-10T07:24:42;1.50;;;1.15;;
27670;SDS011;15077;49.704;9.908;2023-05-10T07:27:08;1.38;;;0.90;;
27670;SDS011;15077;49.704;9.908;2023-05-10T07:29:34;1.98;;;1.30;;
27670;SDS011;15077;49.704;9.908;2023-05-10T07:32:00;1.73;;;0.90;;
27670;SDS011;15077;49.704;9.908;2023-05-10T07:34:26;2.00;;;1.00;;
27670;SDS011;15077;49.704;9.908;2023-05-10T07:36:53;1.70;;;1.33;;
27670;SDS011;15077;49.704;9.908;2023-05-10T07:39:18;3.65;;;1.40;;
27670;SDS011;15077;49.704;9.908;2023-05-10T07:41:45;3.45;;;1.30;;
27670;SDS011;15077;49.704;9.908;2023-05-10T07:44:11;2.25;;;1.00;;
27670;SDS011;15077;49.704;9.908;2023-05-10T07:46:37;5.50;;;1.58;;
27670;SDS011;15077;49.704;9.908;2023-05-10T07:49:03;2.58;;;1.27;;
27670;SDS011;15077;49.704;9.908;2023-05-10T07:51:29;2.33;;;1.38;;
27670;SDS011;15077;49.704;9.908;2023-05-10T07:53:55;4.13;;;1.70;;
27670;SDS011;15077;49.704;9.908;2023-05-10T07:56:23;1.98;;;1.40;;
27670;SDS011;15077;49.704;9.908;2023-05-10T07:58:54;2.47;;;1.15;;
27670;SDS011;15077;49.704;9.908;2023-05-10T08:01:21;2.28;;;1.25;;
27670;SDS011;15077;49.704;9.908;2023-05-10T08:03:48;2.60;;;1.20;;
27670;SDS011;15077;49.704;9.908;2023-05-10T08:06:17;2.83;;;1.33;;
27670;SDS011;15077;49.704;9.908;2023-05-10T08:08:48;2.17;;;1.10;;
27670;SDS011;15077;49.704;9.908;2023-05-10T08:11:16;2.70;;;1.13;;
27670;SDS011;15077;49.704;9.908;2023-05-10T08:13:42;2.50;;;1.10;;
27670;SDS011;15077;49.704;9.908;2023-05-10T08:16:09;2.70;;;1.33;;
27670;SDS011;15077;49.704;9.908;2023-05-10T08:18:35;1.95;;;1.20;;
27670;SDS011;15077;49.704;9.908;2023-05-10T08:21:02;3.22;;;1.08;;
27670;SDS011;15077;49.704;9.908;2023-05-10T08:23:27;1.52;;;1.00;;
27670;SDS011;15077;49.704;9.908;2023-05-10T08:25:53;1.88;;;1.33;;
27670;SDS011;15077;49.704;9.908;2023-05-10T08:28:19;3.42;;;1.30;;
27670;SDS011;15077;49.704;9.908;2023-05-10T08:30:45;2.42;;;1.30;;
27670;SDS011;15077;49.704;9.908;2023-05-10T08:33:10;2.50;;;1.20;;
27670;SDS011;15077;49.704;9.908;2023-05-10T08:35:36;2.65;;;1.33;;
27670;SDS011;15077;49.704;9.908;2023-05-10T08:38:02;1.65;;;1.20;;
27670;SDS011;15077;49.704;9.908;2023-05-10T08:40:28;2.20;;;1.25;;
27670;SDS011;15077;49.704;9.908;2023-05-10T08:42:58;2.13;;;1.23;;
27670;SDS011;15077;49.704;9.908;2023-05-10T08:45:36;2.58;;;1.20;;
27670;SDS011;15077;49.704;9.908;2023-05-10T08:48:07;2.45;;;1.60;;
27670;SDS011;15077;49.704;9.908;2023-05-10T08:50:35;2.17;;;1.20;;
27670;SDS011;15077;49.704;9.908;2023-05-10T08:53:09;1.88;;;1.35;;
27670;SDS011;15077;49.704;9.908;2023-05-10T08:55:37;1.90;;;1.38;;
27670;SDS011;15077;49.704;9.908;2023-05-10T08:58:04;2.25;;;1.30;;
27670;SDS011;15077;49.704;9.908;2023-05-10T09:00:31;1.70;;;1.40;;
27670;SDS011;15077;49.704;9.908;2023-05-10T09:02:58;3.00;;;1.67;;
27670;SDS011;15077;49.704;9.908;2023-05-10T09:05:25;1.63;;;1.20;;
27670;SDS011;15077;49.704;9.908;2023-05-10T09:07:51;2.30;;;0.95;;
27670;SDS011;15077;49.704;9.908;2023-05-10T09:10:18;1.60;;;1.02;;
27670;SDS011;15077;49.704;9.908;2023-05-10T09:12:45;2.47;;;1.20;;
27670;SDS011;15077;49.704;9.908;2023-05-10T09:15:13;3.15;;;1.48;;
27670;SDS011;15077;49.704;9.908;2023-05-10T09:17:41;1.50;;;1.10;;
27670;SDS011;15077;49.704;9.908;2023-05-10T09:20:09;2.00;;;1.13;;
27670;SDS011;15077;49.704;9.908;2023-05-10T09:22:35;1.45;;;1.33;;
27670;SDS011;15077;49.704;9.908;2023-05-10T09:27:31;2.05;;;1.63;;
27670;SDS011;15077;49.704;9.908;2023-05-10T09:29:57;1.85;;;1.25;;
27670;SDS011;15077;49.704;9.908;2023-05-10T09:32:35;2.00;;;1.40;;
27670;SDS011;15077;49.704;9.908;2023-05-10T09:35:08;1.88;;;1.60;;
27670;SDS011;15077;49.704;9.908;2023-05-10T09:37:38;1.75;;;1.10;;
27670;SDS011;15077;49.704;9.908;2023-05-10T09:40:12;1.77;;;1.10;;
27670;SDS011;15077;49.704;9.908;2023-05-10T09:42:42;2.17;;;1.10;;
27670;SDS011;15077;49.704;9.908;2023-05-10T09:45:28;2.75;;;0.98;;
27670;SDS011;15077;49.704;9.908;2023-05-10T09:47:59;1.33;;;0.90;;
27670;SDS011;15077;49.704;9.908;2023-05-10T09:50:27;1.33;;;1.00;;
27670;SDS011;15077;49.704;9.908;2023-05-10T09:52:55;2.95;;;1.27;;
27670;SDS011;15077;49.704;9.908;2023-05-10T09:55:40;1.50;;;0.90;;
27670;SDS011;15077;49.704;9.908;2023-05-10T09:58:12;1.38;;;0.90;;
27670;SDS011;15077;49.704;9.908;2023-05-10T10:00:39;1.23;;;0.93;;
27670;SDS011;15077;49.704;9.908;2023-05-10T10:03:12;1.10;;;0.80;;
27670;SDS011;15077;49.704;9.908;2023-05-10T10:05:43;1.35;;;0.90;;
27670;SDS011;15077;49.704;9.908;2023-05-10T10:08:10;2.25;;;1.15;;
27670;SDS011;15077;49.704;9.908;2023-05-10T10:10:37;1.23;;;0.80;;
27670;SDS011;15077;49.704;9.908;2023-05-10T10:13:05;1.20;;;0.60;;
27670;SDS011;15077;49.704;9.908;2023-05-10T10:15:32;1.20;;;1.10;;
27670;SDS011;15077;49.704;9.908;2023-05-10T10:17:59;1.63;;;0.98;;
27670;SDS011;15077;49.704;9.908;2023-05-10T10:20:26;1.00;;;0.80;;
27670;SDS011;15077;49.704;9.908;2023-05-10T10:22:53;1.45;;;0.82;;
27670;SDS011;15077;49.704;9.908;2023-05-10T10:25:19;1.30;;;0.80;;
27670;SDS011;15077;49.704;9.908;2023-05-10T10:27:55;1.00;;;0.82;;
27670;SDS011;15077;49.704;9.908;2023-05-10T10:30:48;2.33;;;1.00;;
27670;SDS011;15077;49.704;9.908;2023-05-10T10:36:08;0.90;;;0.65;;
27670;SDS011;15077;49.704;9.908;2023-05-10T10:38:36;1.80;;;0.80;;
27670;SDS011;15077;49.704;9.908;2023-05-10T10:41:28;1.40;;;0.77;;
27670;SDS011;15077;49.704;9.908;2023-05-10T11:08:07;0.82;;;0.60;;
27670;SDS011;15077;49.704;9.908;2023-05-10T11:13:32;2.13;;;0.80;;
27670;SDS011;15077;49.704;9.908;2023-05-10T11:16:10;1.73;;;0.80;;
27670;SDS011;15077;49.704;9.908;2023-05-10T11:21:27;0.88;;;0.70;;
27670;SDS011;15077;49.704;9.908;2023-05-10T11:23:55;1.80;;;0.77;;
27670;SDS011;15077;49.704;9.908;2023-05-10T11:26:30;1.23;;;0.65;;
27670;SDS011;15077;49.704;9.908;2023-05-10T11:29:00;0.50;;;0.50;;
27670;SDS011;15077;49.704;9.908;2023-05-10T11:31:28;1.25;;;0.47;;
27670;SDS011;15077;49.704;9.908;2023-05-10T11:33:55;1.55;;;1.00;;
27670;SDS011;15077;49.704;9.908;2023-05-10T11:36:26;0.88;;;0.60;;
27670;SDS011;15077;49.704;9.908;2023-05-10T11:39:00;3.00;;;1.48;;
27670;SDS011;15077;49.704;9.908;2023-05-10T11:41:27;2.17;;;1.23;;
27670;SDS011;15077;49.704;9.908;2023-05-10T11:43:55;0.63;;;0.63;;
27670;SDS011;15077;49.704;9.908;2023-05-10T11:46:26;2.30;;;1.75;;
27670;SDS011;15077;49.704;9.908;2023-05-10T11:48:56;1.67;;;1.30;;
27670;SDS011;15077;49.704;9.908;2023-05-10T11:51:26;1.20;;;0.85;;
27670;SDS011;15077;49.704;9.908;2023-05-10T11:53:53;1.48;;;1.10;;
27670;SDS011;15077;49.704;9.908;2023-05-10T11:56:20;1.05;;;0.77;;
27670;SDS011;15077;49.704;9.908;2023-05-10T11:58:52;0.93;;;0.80;;
27670;SDS011;15077;49.704;9.908;2023-05-10T12:01:22;0.52;;;0.50;;
27670;SDS011;15077;49.704;9.908;2023-05-10T12:03:50;1.50;;;0.80;;
27670;SDS011;15077;49.704;9.908;2023-05-10T12:06:18;1.10;;;0.80;;
27670;SDS011;15077;49.704;9.908;2023-05-10T12:08:46;1.45;;;0.73;;
27670;SDS011;15077;49.704;9.908;2023-05-10T12:11:15;0.70;;;0.60;;
27670;SDS011;15077;49.704;9.908;2023-05-10T12:14:03;1.50;;;0.70;;
27670;SDS011;15077;49.704;9.908;2023-05-10T12:16:33;1.40;;;0.85;;
27670;SDS011;15077;49.704;9.908;2023-05-10T12:19:00;1.08;;;0.68;;
27670;SDS011;15077;49.704;9.908;2023-05-10T12:21:27;4.57;;;0.93;;
27670;SDS011;15077;49.704;9.908;2023-05-10T12:23:59;1.25;;;0.63;;
27670;SDS011;15077;49.704;9.908;2023-05-10T12:26:28;1.65;;;0.50;;
27670;SDS011;15077;49.704;9.908;2023-05-10T12:28:55;3.85;;;2.47;;
27670;SDS011;15077;49.704;9.908;2023-05-10T12:31:50;1.70;;;0.80;;
27670;SDS011;15077;49.704;9.908;2023-05-10T12:34:23;0.82;;;0.60;;
27670;SDS011;15077;49.704;9.908;2023-05-10T12:36:56;1.00;;;0.68;;
27670;SDS011;15077;49.704;9.908;2023-05-10T12:39:23;1.33;;;0.60;;
27670;SDS011;15077;49.704;9.908;2023-05-10T12:41:50;0.93;;;0.60;;
27670;SDS011;15077;49.704;9.908;2023-05-10T12:44:17;0.60;;;0.50;;
27670;SDS011;15077;49.704;9.908;2023-05-10T12:46:43;0.65;;;0.50;;
27670;SDS011;15077;49.704;9.908;2023-05-10T12:49:09;1.27;;;0.60;;
27670;SDS011;15077;49.704;9.908;2023-05-10T12:51:35;1.27;;;0.70;;
27670;SDS011;15077;49.704;9.908;2023-05-10T12:54:02;0.52;;;0.52;;
27670;SDS011;15077;49.704;9.908;2023-05-10T12:56:32;0.80;;;0.80;;
27670;SDS011;15077;49.704;9.908;2023-05-10T12:58:57;1.63;;;1.33;;
27670;SDS011;15077;49.704;9.908;2023-05-10T13:01:23;1.27;;;0.90;;
27670;SDS011;15077;49.704;9.908;2023-05-10T13:03:49;1.23;;;0.80;;
27670;SDS011;15077;49.704;9.908;2023-05-10T13:06:15;0.82;;;0.77;;
27670;SDS011;15077;49.704;9.908;2023-05-10T13:08:41;1.90;;;0.90;;
27670;SDS011;15077;49.704;9.908;2023-05-10T13:11:06;1.08;;;0.90;;
27670;SDS011;15077;49.704;9.908;2023-05-10T13:13:32;0.88;;;0.70;;
27670;SDS011;15077;49.704;9.908;2023-05-10T13:15:58;1.13;;;0.70;;
27670;SDS011;15077;49.704;9.908;2023-05-10T13:18:24;1.33;;;0.80;;
27670;SDS011;15077;49.704;9.908;2023-05-10T13:20:51;0.80;;;0.70;;
27670;SDS011;15077;49.704;9.908;2023-05-10T13:23:16;1.52;;;1.10;;
27670;SDS011;15077;49.704;9.908;2023-05-10T13:25:42;1.40;;;1.27;;
27670;SDS011;15077;49.704;9.908;2023-05-10T13:28:08;1.20;;;1.00;;
27670;SDS011;15077;49.704;9.908;2023-05-10T13:30:34;2.88;;;1.23;;
27670;SDS011;15077;49.704;9.908;2023-05-10T13:32:59;1.20;;;1.10;;
27670;SDS011;15077;49.704;9.908;2023-05-10T13:35:25;2.10;;;0.90;;
27670;SDS011;15077;49.704;9.908;2023-05-10T13:37:51;1.15;;;0.82;;
27670;SDS011;15077;49.704;9.908;2023-05-10T13:40:18;1.70;;;0.70;;
27670;SDS011;15077;49.704;9.908;2023-05-10T13:42:44;0.70;;;0.68;;
27670;SDS011;15077;49.704;9.908;2023-05-10T13:45:10;1.00;;;0.80;;
27670;SDS011;15077;49.704;9.908;2023-05-10T13:47:38;0.80;;;0.70;;
27670;SDS011;15077;49.704;9.908;2023-05-10T13:50:03;0.80;;;0.80;;
27670;SDS011;15077;49.704;9.908;2023-05-10T13:52:30;1.00;;;0.73;;
27670;SDS011;15077;49.704;9.908;2023-05-10T13:54:56;1.15;;;0.82;;
27670;SDS011;15077;49.704;9.908;2023-05-10T13:57:22;0.93;;;0.70;;
27670;SDS011;15077;49.704;9.908;2023-05-10T13:59:48;0.98;;;0.82;;
27670;SDS011;15077;49.704;9.908;2023-05-10T14:02:15;1.58;;;0.70;;
27670;SDS011;15077;49.704;9.908;2023-05-10T14:04:40;1.00;;;0.93;;
27670;SDS011;15077;49.704;9.908;2023-05-10T14:07:06;1.20;;;0.68;;
27670;SDS011;15077;49.704;9.908;2023-05-10T14:09:32;1.27;;;0.80;;
27670;SDS011;15077;49.704;9.908;2023-05-10T14:11:58;0.95;;;0.70;;
27670;SDS011;15077;49.704;9.908;2023-05-10T14:14:23;0.85;;;0.60;;
27670;SDS011;15077;49.704;9.908;2023-05-10T14:16:49;2.17;;;0.73;;
27670;SDS011;15077;49.704;9.908;2023-05-10T14:19:15;1.08;;;0.70;;
27670;SDS011;15077;49.704;9.908;2023-05-10T14:21:41;1.13;;;0.60;;
27670;SDS011;15077;49.704;9.908;2023-05-10T14:24:08;1.80;;;0.98;;
27670;SDS011;15077;49.704;9.908;2023-05-10T14:26:33;1.00;;;0.60;;
27670;SDS011;15077;49.704;9.908;2023-05-10T14:28:59;0.80;;;0.68;;
27670;SDS011;15077;49.704;9.908;2023-05-10T14:31:25;1.73;;;0.60;;
27670;SDS011;15077;49.704;9.908;2023-05-10T14:33:51;0.80;;;0.50;;
27670;SDS011;15077;49.704;9.908;2023-05-10T14:36:18;1.10;;;0.70;;
27670;SDS011;15077;49.704;9.908;2023-05-10T14:38:43;0.63;;;0.40;;
27670;SDS011;15077;49.704;9.908;2023-05-10T14:41:09;1.42;;;0.68;;
27670;SDS011;15077;49.704;9.908;2023-05-10T14:43:39;1.08;;;0.90;;
27670;SDS011;15077;49.704;9.908;2023-05-10T14:46:05;1.35;;;0.82;;
27670;SDS011;15077;49.704;9.908;2023-05-10T14:48:31;1.27;;;0.75;;
27670;SDS011;15077;49.704;9.908;2023-05-10T14:50:56;1.10;;;0.65;;
27670;SDS011;15077;49.704;9.908;2023-05-10T14:53:22;1.17;;;0.70;;
27670;SDS011;15077;49.704;9.908;2023-05-10T14:55:48;1.08;;;0.80;;
27670;SDS011;15077;49.704;9.908;2023-05-10T14:58:14;14.32;;;7.78;;
27670;SDS011;15077;49.704;9.908;2023-05-10T15:00:40;10.57;;;5.80;;
27670;SDS011;15077;49.704;9.908;2023-05-10T15:03:06;4.65;;;2.75;;
27670;SDS011;15077;49.704;9.908;2023-05-10T15:05:31;2.45;;;1.77;;
27670;SDS011;15077;49.704;9.908;2023-05-10T15:07:57;1.73;;;1.23;;
27670;SDS011;15077;49.704;9.908;2023-05-10T15:10:24;1.30;;;0.90;;
27670;SDS011;15077;49.704;9.908;2023-05-10T15:12:50;1.45;;;0.90;;
27670;SDS011;15077;49.704;9.908;2023-05-10T15:15:16;1.17;;;1.00;;
27670;SDS011;15077;49.704;9.908;2023-05-10T15:17:42;1.80;;;1.02;;
27670;SDS011;15077;49.704;9.908;2023-05-10T15:20:08;2.90;;;2.20;;
27670;SDS011;15077;49.704;9.908;2023-05-10T15:22:34;3.13;;;2.30;;
27670;SDS011;15077;49.704;9.908;2023-05-10T15:25:00;3.97;;;2.53;;
27670;SDS011;15077;49.704;9.908;2023-05-10T15:27:26;6.72;;;3.30;;
27670;SDS011;15077;49.704;9.908;2023-05-10T15:29:52;6.88;;;3.70;;
27670;SDS011;15077;49.704;9.908;2023-05-10T15:32:18;6.53;;;3.97;;
27670;SDS011;15077;49.704;9.908;2023-05-10T15:34:44;4.97;;;3.10;;
27670;SDS011;15077;49.704;9.908;2023-05-10T15:37:09;14.52;;;7.78;;
27670;SDS011;15077;49.704;9.908;2023-05-10T15:39:35;8.45;;;4.80;;